createdAt,value
2022-08-26T00:01:46.782Z,12.57
2022-08-26T00:04:14.306Z,13.23
2022-08-26T00:06:42.565Z,12.32
2022-08-26T00:09:16.194Z,12.80
2022-08-26T00:11:45.993Z,13.50
2022-08-26T00:14:16.277Z,13.20
2022-08-26T00:16:47.920Z,12.90
2022-08-26T00:19:21.324Z,13.50
2022-08-26T00:21:50.084Z,12.80
2022-08-26T00:24:20.885Z,13.05
2022-08-26T00:26:48.568Z,12.48
2022-08-26T00:29:16.238Z,13.15
2022-08-26T00:31:45.056Z,11.75
2022-08-26T00:34:13.909Z,12.45
2022-08-26T00:36:40.992Z,12.75
2022-08-26T00:39:08.198Z,12.88
2022-08-26T00:41:37.819Z,13.70
2022-08-26T00:44:05.188Z,12.77
2022-08-26T00:46:37.164Z,12.45
2022-08-26T00:49:15.915Z,12.52
2022-08-26T00:51:52.447Z,12.63
2022-08-26T00:54:22.945Z,13.15
2022-08-26T00:57:00.337Z,12.10
2022-08-26T00:59:29.282Z,11.48
2022-08-26T01:02:02.860Z,12.73
2022-08-26T01:04:33.540Z,12.18
2022-08-26T01:07:00.526Z,12.70
2022-08-26T01:09:28.380Z,11.77
2022-08-26T01:12:01.106Z,11.93
2022-08-26T01:14:35.158Z,12.20
2022-08-26T01:17:05.850Z,11.90
2022-08-26T01:19:44.568Z,13.10
2022-08-26T01:22:52.376Z,12.35
2022-08-26T01:25:20.591Z,12.95
2022-08-26T01:27:49.183Z,12.20
2022-08-26T01:30:18.594Z,12.60
2022-08-26T01:32:46.385Z,11.77
2022-08-26T01:35:13.313Z,11.90
2022-08-26T01:37:41.489Z,13.05
2022-08-26T01:40:14.509Z,11.43
2022-08-26T01:42:44.590Z,10.35
2022-08-26T01:45:25.369Z,11.00
2022-08-26T01:47:56.854Z,11.73
2022-08-26T01:50:30.744Z,12.10
2022-08-26T01:53:01.479Z,11.50
2022-08-26T01:55:32.969Z,12.65
2022-08-26T01:58:05.252Z,12.98
2022-08-26T02:00:34.497Z,12.48
2022-08-26T02:03:17.617Z,12.95
2022-08-26T02:06:09.421Z,12.55
2022-08-26T02:08:49.758Z,12.50
2022-08-26T02:11:18.317Z,12.23
2022-08-26T02:13:48.641Z,13.93
2022-08-26T02:16:18.578Z,13.13
2022-08-26T02:18:48.799Z,11.88
2022-08-26T02:21:17.082Z,12.98
2022-08-26T02:23:44.433Z,13.95
2022-08-26T02:26:19.185Z,14.75
2022-08-26T02:29:16.340Z,13.50
2022-08-26T02:31:43.342Z,14.65
2022-08-26T02:34:19.637Z,14.50
2022-08-26T02:36:46.784Z,15.77
2022-08-26T02:39:16.950Z,14.40
2022-08-26T02:41:49.236Z,14.93
2022-08-26T02:44:16.248Z,14.98
2022-08-26T02:46:47.066Z,14.70
2022-08-26T02:49:15.367Z,15.02
2022-08-26T02:51:43.997Z,14.88
2022-08-26T02:54:10.923Z,15.15
2022-08-26T02:56:37.883Z,15.00
2022-08-26T02:59:05.167Z,14.07
2022-08-26T03:01:34.658Z,14.55
2022-08-26T03:04:04.290Z,15.88
2022-08-26T03:06:31.352Z,14.30
2022-08-26T03:08:59.603Z,13.75
2022-08-26T03:11:29.738Z,13.82
2022-08-26T03:14:03.407Z,14.98
2022-08-26T03:16:35.755Z,13.88
2022-08-26T03:19:04.983Z,13.73
2022-08-26T03:21:33.360Z,15.55
2022-08-26T03:24:00.507Z,11.70
2022-08-26T03:26:28.891Z,12.45
2022-08-26T03:29:15.763Z,11.85
2022-08-26T03:31:43.666Z,11.57
2022-08-26T03:34:14.300Z,11.85
2022-08-26T03:36:41.993Z,11.63
2022-08-26T03:39:11.573Z,11.85
2022-08-26T03:41:39.027Z,12.73
2022-08-26T03:44:08.862Z,14.05
2022-08-26T03:46:36.544Z,12.80
2022-08-26T03:49:06.024Z,14.25
2022-08-26T03:51:34.667Z,12.35
2022-08-26T03:54:06.200Z,12.40
2022-08-26T03:56:36.668Z,13.52
2022-08-26T03:59:05.004Z,14.70
2022-08-26T04:01:35.266Z,13.55
2022-08-26T04:04:03.272Z,12.65
2022-08-26T04:06:48.348Z,11.60
2022-08-26T04:09:21.034Z,12.30
2022-08-26T04:11:50.346Z,11.65
2022-08-26T04:14:23.850Z,12.82
2022-08-26T04:16:52.129Z,13.45
2022-08-26T04:19:19.818Z,12.40
2022-08-26T04:21:48.798Z,13.38
2022-08-26T04:24:16.440Z,13.00
2022-08-26T04:26:44.784Z,13.40
2022-08-26T04:29:20.332Z,13.05
2022-08-26T04:31:50.214Z,13.43
2022-08-26T04:34:24.336Z,12.30
2022-08-26T04:36:54.426Z,11.57
2022-08-26T04:39:21.611Z,11.13
2022-08-26T04:41:50.895Z,12.88
2022-08-26T04:44:18.338Z,11.40
2022-08-26T04:46:45.512Z,11.73
2022-08-26T04:49:13.695Z,12.48
2022-08-26T04:51:40.616Z,11.05
2022-08-26T04:54:07.612Z,12.13
2022-08-26T04:56:37.872Z,11.57
2022-08-26T04:59:08.130Z,12.90
2022-08-26T05:01:49.911Z,13.10
2022-08-26T05:04:19.199Z,12.60
2022-08-26T05:06:48.274Z,11.57
2022-08-26T05:09:16.052Z,11.50
2022-08-26T05:11:43.251Z,11.65
2022-08-26T05:14:10.601Z,11.85
2022-08-26T05:16:38.883Z,12.60
2022-08-26T05:19:08.644Z,11.60
2022-08-26T05:21:35.917Z,11.90
2022-08-26T05:24:04.692Z,11.00
2022-08-26T05:26:33.007Z,10.93
2022-08-26T05:29:01.542Z,10.93
2022-08-26T05:31:31.640Z,11.65
2022-08-26T05:34:00.458Z,11.35
2022-08-26T05:36:33.474Z,10.93
2022-08-26T05:39:01.673Z,10.85
2022-08-26T05:41:34.519Z,12.13
2022-08-26T05:44:07.277Z,12.02
2022-08-26T05:46:34.792Z,11.73
2022-08-26T05:49:03.945Z,11.32
2022-08-26T05:51:31.199Z,12.30
2022-08-26T05:53:58.314Z,14.00
2022-08-26T05:56:27.751Z,12.68
2022-08-26T05:58:58.504Z,11.82
2022-08-26T06:01:28.113Z,13.50
2022-08-26T06:03:59.777Z,12.93
2022-08-26T06:06:34.523Z,13.98
2022-08-26T06:09:05.530Z,12.88
2022-08-26T06:11:33.406Z,12.82
2022-08-26T06:14:04.397Z,14.48
2022-08-26T06:16:34.954Z,13.43
2022-08-26T06:19:10.586Z,13.75
2022-08-26T06:21:40.189Z,14.68
2022-08-26T06:24:28.857Z,13.95
2022-08-26T06:27:09.643Z,14.85
2022-08-26T06:29:38.915Z,14.60
2022-08-26T06:32:06.866Z,15.45
2022-08-26T06:34:33.941Z,14.85
2022-08-26T06:37:06.445Z,14.68
2022-08-26T06:39:33.915Z,15.05
2022-08-26T06:42:02.668Z,15.38
2022-08-26T06:44:33.733Z,14.65
2022-08-26T06:47:00.944Z,15.07
2022-08-26T06:49:27.950Z,14.23
2022-08-26T06:51:58.562Z,13.90
2022-08-26T06:54:26.583Z,13.90
2022-08-26T06:56:53.951Z,13.32
2022-08-26T06:59:21.926Z,14.05
2022-08-26T07:01:49.618Z,14.82
2022-08-26T07:04:21.816Z,13.48
2022-08-26T07:06:52.736Z,15.27
2022-08-26T07:09:22.340Z,13.55
2022-08-26T07:11:51.435Z,14.13
2022-08-26T07:14:19.382Z,12.82
2022-08-26T07:16:49.687Z,13.00
2022-08-26T07:19:30.317Z,14.63
2022-08-26T07:22:03.846Z,13.98
2022-08-26T07:24:33.628Z,13.88
2022-08-26T07:27:05.640Z,14.27
2022-08-26T07:29:33.360Z,14.00
2022-08-26T07:32:00.605Z,14.15
2022-08-26T07:34:27.733Z,13.88
2022-08-26T07:36:56.270Z,14.25
2022-08-26T07:39:23.951Z,13.65
2022-08-26T07:41:52.286Z,14.15
2022-08-26T07:44:19.805Z,13.63
2022-08-26T07:46:53.069Z,13.77
2022-08-26T07:49:22.824Z,13.98
2022-08-26T07:51:50.955Z,14.60
2022-08-26T07:54:17.924Z,14.13
2022-08-26T07:56:46.208Z,14.45
2022-08-26T07:59:15.111Z,13.52
2022-08-26T08:01:44.899Z,13.57
2022-08-26T08:04:17.308Z,13.88
2022-08-26T08:06:46.023Z,14.23
2022-08-26T08:09:16.098Z,14.10
2022-08-26T08:11:44.738Z,14.18
2022-08-26T08:14:13.188Z,13.48
2022-08-26T08:16:45.989Z,14.63
2022-08-26T08:19:16.166Z,14.50
2022-08-26T08:21:44.093Z,14.40
2022-08-26T08:24:11.948Z,14.02
2022-08-26T08:26:39.821Z,15.30
2022-08-26T08:29:08.892Z,14.10
2022-08-26T08:31:56.115Z,13.85
2022-08-26T08:34:26.483Z,13.75
2022-08-26T08:36:53.870Z,13.68
2022-08-26T08:39:22.446Z,14.93
2022-08-26T08:42:14.156Z,14.85
2022-08-26T08:44:44.437Z,13.63
2022-08-26T08:47:43.174Z,15.52
2022-08-26T08:50:20.575Z,13.60
2022-08-26T08:53:01.177Z,12.25
2022-08-26T08:55:43.128Z,13.63
2022-08-26T08:58:19.745Z,13.20
2022-08-26T09:01:01.964Z,14.07
2022-08-26T09:03:43.454Z,14.05
2022-08-26T09:06:17.380Z,15.13
2022-08-26T09:08:50.602Z,12.85
2022-08-26T09:11:20.484Z,11.73
2022-08-26T09:13:55.491Z,12.50
2022-08-26T09:16:47.214Z,11.98
2022-08-26T09:19:24.948Z,10.25
2022-08-26T09:21:57.416Z,12.30
2022-08-26T09:24:28.488Z,11.65
2022-08-26T09:26:58.328Z,12.85
2022-08-26T09:29:28.716Z,12.95
2022-08-26T09:32:15.172Z,12.50
2022-08-26T09:35:17.387Z,13.05
2022-08-26T09:40:29.203Z,13.35
2022-08-26T09:43:22.375Z,11.60
2022-08-26T09:45:59.234Z,11.15
2022-08-26T09:48:35.569Z,10.57
2022-08-26T09:51:28.370Z,10.95
2022-08-26T09:53:57.086Z,9.15
2022-08-26T09:56:23.910Z,9.98
2022-08-26T09:58:53.134Z,9.65
2022-08-26T10:01:23.260Z,10.05
2022-08-26T10:03:51.588Z,10.40
2022-08-26T10:06:20.955Z,10.30
2022-08-26T10:08:53.046Z,10.85
2022-08-26T10:11:35.239Z,10.65
2022-08-26T10:14:08.374Z,9.80
2022-08-26T10:16:41.136Z,11.20
2022-08-26T10:19:21.641Z,9.55
2022-08-26T10:22:30.425Z,9.00
2022-08-26T10:25:02.776Z,10.98
2022-08-26T10:27:54.235Z,9.27
2022-08-26T10:30:27.337Z,8.57
2022-08-26T10:33:04.119Z,9.43
2022-08-26T10:35:33.814Z,8.65
2022-08-26T10:38:14.535Z,8.73
2022-08-26T10:40:44.053Z,8.25
2022-08-26T10:43:25.792Z,9.30
2022-08-26T10:46:03.236Z,10.68
2022-08-26T10:48:42.342Z,9.45
2022-08-26T10:51:12.693Z,7.55
2022-08-26T10:53:44.317Z,8.20
2022-08-26T10:56:40.115Z,11.95
2022-08-26T10:59:14.592Z,10.75
2022-08-26T11:01:56.709Z,9.68
2022-08-26T11:04:34.930Z,8.48
2022-08-26T11:07:46.229Z,9.73
2022-08-26T11:10:19.229Z,9.00
2022-08-26T11:12:49.424Z,7.88
2022-08-26T11:15:26.532Z,8.32
2022-08-26T11:17:55.365Z,10.45
2022-08-26T11:20:28.122Z,7.60
2022-08-26T11:23:16.311Z,7.38
2022-08-26T11:26:01.346Z,8.57
2022-08-26T11:28:35.565Z,7.45
2022-08-26T11:31:05.558Z,8.40
2022-08-26T11:33:54.196Z,7.55
2022-08-26T11:36:45.530Z,8.88
2022-08-26T11:39:30.610Z,7.15
2022-08-26T11:42:16.003Z,6.82
2022-08-26T11:44:49.117Z,7.32
2022-08-26T11:47:25.287Z,7.20
2022-08-26T11:50:17.490Z,8.23
2022-08-26T11:53:04.361Z,7.40
2022-08-26T11:55:36.763Z,7.18
2022-08-26T11:58:05.721Z,6.88
2022-08-26T12:00:45.728Z,6.90
2022-08-26T12:03:19.681Z,7.07
2022-08-26T12:05:49.887Z,6.78
2022-08-26T12:08:21.720Z,6.20
2022-08-26T12:10:49.164Z,7.50
2022-08-26T12:13:26.446Z,6.65
2022-08-26T12:15:56.511Z,5.97
2022-08-26T12:18:35.780Z,6.20
2022-08-26T12:21:16.276Z,7.38
2022-08-26T12:23:47.833Z,6.45
2022-08-26T12:26:21.099Z,5.38
2022-08-26T12:28:52.951Z,6.82
2022-08-26T12:31:41.602Z,8.32
2022-08-26T12:34:18.019Z,5.35
2022-08-26T12:39:33.074Z,5.18
2022-08-26T12:42:04.201Z,5.97
2022-08-26T12:44:38.331Z,5.30
2022-08-26T12:47:10.000Z,5.53
2022-08-26T12:49:39.535Z,5.60
2022-08-26T12:52:29.983Z,6.85
2022-08-26T12:55:17.571Z,6.47
2022-08-26T12:57:45.118Z,6.18
2022-08-26T13:00:30.427Z,6.40
2022-08-26T13:02:58.905Z,6.30
2022-08-26T13:05:35.695Z,6.30
2022-08-26T13:08:17.059Z,6.25
2022-08-26T13:10:47.059Z,6.05
2022-08-26T13:13:16.264Z,6.13
2022-08-26T13:15:44.150Z,5.85
2022-08-26T13:18:11.519Z,6.38
2022-08-26T13:20:44.472Z,7.43
2022-08-26T13:23:12.362Z,7.63
2022-08-26T13:25:39.398Z,5.28
2022-08-26T13:28:07.286Z,7.13
2022-08-26T13:30:34.186Z,6.03
2022-08-26T13:33:02.227Z,4.60
2022-08-26T13:35:31.584Z,4.68
2022-08-26T13:37:58.995Z,6.20
2022-08-26T13:40:26.241Z,5.97
2022-08-26T13:42:53.219Z,5.88
2022-08-26T13:45:20.739Z,6.00
2022-08-26T13:47:47.780Z,6.95
2022-08-26T13:50:15.024Z,5.97
2022-08-26T13:52:41.931Z,7.13
2022-08-26T13:55:09.421Z,5.82
2022-08-26T13:57:36.343Z,6.03
2022-08-26T14:00:05.648Z,5.72
2022-08-26T14:02:38.024Z,6.13
2022-08-26T14:05:05.855Z,7.95
2022-08-26T14:07:32.994Z,6.68
2022-08-26T14:10:00.003Z,6.65
2022-08-26T14:12:28.298Z,7.22
2022-08-26T14:14:55.229Z,6.85
2022-08-26T14:17:24.536Z,5.03
2022-08-26T14:19:52.582Z,4.70
2022-08-26T14:22:22.041Z,5.05
2022-08-26T14:24:50.525Z,5.38
2022-08-26T14:27:20.178Z,5.68
2022-08-26T14:29:47.157Z,5.80
2022-08-26T14:32:26.201Z,5.30
2022-08-26T14:34:54.428Z,4.80
2022-08-26T14:37:21.721Z,4.60
2022-08-26T14:39:48.757Z,4.38
2022-08-26T14:42:20.390Z,4.85
2022-08-26T14:44:53.567Z,5.15
2022-08-26T14:47:20.587Z,4.97
2022-08-26T14:49:47.577Z,4.13
2022-08-26T14:52:14.819Z,4.40
2022-08-26T14:54:42.034Z,4.75
2022-08-26T14:57:13.052Z,4.97
2022-08-26T14:59:45.519Z,4.88
2022-08-26T15:02:32.615Z,5.75
2022-08-26T15:05:02.377Z,7.05
2022-08-26T15:07:29.349Z,5.13
2022-08-26T15:09:56.449Z,5.45
2022-08-26T15:12:23.573Z,5.03
2022-08-26T15:14:51.219Z,5.10
2022-08-26T15:17:18.344Z,5.15
2022-08-26T15:19:45.427Z,4.55
2022-08-26T15:22:12.446Z,5.13
2022-08-26T15:24:39.485Z,5.78
2022-08-26T15:27:06.499Z,6.03
2022-08-26T15:29:36.332Z,8.05
2022-08-26T15:32:05.288Z,6.80
2022-08-26T15:34:32.530Z,8.85
2022-08-26T15:36:59.888Z,6.50
2022-08-26T15:39:27.591Z,6.65
2022-08-26T15:41:59.852Z,6.15
2022-08-26T15:44:27.584Z,5.65
2022-08-26T15:46:58.439Z,6.13
2022-08-26T15:49:27.529Z,6.63
2022-08-26T15:51:55.202Z,5.45
2022-08-26T15:54:24.826Z,4.45
2022-08-26T15:56:53.159Z,5.35
2022-08-26T15:59:22.224Z,5.30
2022-08-26T16:01:50.031Z,5.65
2022-08-26T16:04:18.692Z,5.15
2022-08-26T16:06:50.482Z,5.65
2022-08-26T16:09:20.350Z,4.80
2022-08-26T16:11:47.312Z,4.65
2022-08-26T16:14:14.840Z,4.80
2022-08-26T16:16:41.821Z,5.60
2022-08-26T16:19:09.432Z,4.72
2022-08-26T16:21:36.668Z,5.82
2022-08-26T16:24:05.038Z,5.03
2022-08-26T16:26:34.788Z,4.70
2022-08-26T16:29:04.258Z,4.53
2022-08-26T16:31:31.291Z,5.70
2022-08-26T16:33:58.582Z,5.15
2022-08-26T16:36:25.547Z,4.68
2022-08-26T16:38:56.408Z,5.60
2022-08-26T16:41:25.227Z,5.70
2022-08-26T16:43:53.072Z,5.25
2022-08-26T16:46:22.339Z,6.07
2022-08-26T16:48:49.807Z,5.30
2022-08-26T16:51:23.105Z,5.35
2022-08-26T16:53:51.299Z,5.68
2022-08-26T16:56:23.665Z,5.07
2022-08-26T16:59:00.506Z,5.05
2022-08-26T17:01:29.082Z,6.40
2022-08-26T17:03:56.284Z,5.07
2022-08-26T17:06:23.367Z,5.82
2022-08-26T17:08:50.402Z,5.30
2022-08-26T17:11:17.467Z,6.10
2022-08-26T17:13:44.491Z,5.75
2022-08-26T17:16:12.682Z,7.18
2022-08-26T17:18:39.956Z,5.50
2022-08-26T17:21:09.518Z,5.63
2022-08-26T17:23:37.797Z,6.38
2022-08-26T17:26:05.477Z,4.97
2022-08-26T17:28:32.880Z,5.85
2022-08-26T17:31:00.170Z,5.75
2022-08-26T17:33:28.432Z,5.63
2022-08-26T17:35:56.300Z,5.85
2022-08-26T17:38:24.171Z,6.30
2022-08-26T17:40:52.474Z,6.70
2022-08-26T17:43:19.911Z,7.25
2022-08-26T17:45:47.095Z,6.80
2022-08-26T17:48:14.624Z,6.80
2022-08-26T17:50:43.131Z,6.40
2022-08-26T17:53:18.867Z,6.28
2022-08-26T17:55:50.168Z,6.70
2022-08-26T17:58:20.146Z,6.78
2022-08-26T18:00:52.328Z,5.95
2022-08-26T18:03:19.681Z,7.40
2022-08-26T18:05:53.205Z,8.10
2022-08-26T18:08:21.017Z,7.20
2022-08-26T18:10:48.424Z,6.90
2022-08-26T18:13:15.910Z,6.68
2022-08-26T18:15:45.605Z,6.88
2022-08-26T18:18:16.383Z,6.07
2022-08-26T18:20:45.772Z,5.38
2022-08-26T18:23:18.940Z,7.10
2022-08-26T18:25:46.009Z,6.47
2022-08-26T18:28:13.161Z,6.30
2022-08-26T18:30:42.714Z,6.32
2022-08-26T18:33:11.001Z,6.43
2022-08-26T18:35:40.253Z,6.60
2022-08-26T18:38:11.577Z,7.60
2022-08-26T18:40:41.636Z,8.48
2022-08-26T18:43:09.021Z,9.18
2022-08-26T18:45:36.898Z,8.15
2022-08-26T18:48:04.268Z,10.18
2022-08-26T18:50:31.431Z,7.80
2022-08-26T18:52:58.418Z,8.63
2022-08-26T18:55:25.551Z,9.10
2022-08-26T18:57:52.724Z,9.20
2022-08-26T19:00:20.206Z,9.20
2022-08-26T19:02:52.254Z,7.88
2022-08-26T19:05:23.308Z,7.10
2022-08-26T19:07:51.993Z,7.25
2022-08-26T19:10:19.381Z,7.72
2022-08-26T19:12:46.409Z,7.32
2022-08-26T19:15:20.292Z,8.30
2022-08-26T19:17:48.310Z,8.02
2022-08-26T19:20:15.595Z,7.90
2022-08-26T19:22:42.610Z,8.30
2022-08-26T19:25:10.185Z,8.10
2022-08-26T19:27:37.161Z,8.15
2022-08-26T19:30:06.602Z,8.43
2022-08-26T19:32:33.632Z,9.38
2022-08-26T19:35:00.602Z,9.60
2022-08-26T19:37:27.752Z,9.75
2022-08-26T19:39:56.175Z,8.43
2022-08-26T19:42:23.255Z,10.43
2022-08-26T19:45:11.061Z,8.18
2022-08-26T19:47:53.172Z,7.13
2022-08-26T19:50:20.384Z,6.68
2022-08-26T19:52:47.712Z,7.53
2022-08-26T19:55:17.255Z,6.43
2022-08-26T19:57:44.531Z,7.28
2022-08-26T20:00:15.654Z,7.43
2022-08-26T20:02:44.435Z,7.28
2022-08-26T20:05:13.371Z,6.60
2022-08-26T20:07:41.204Z,7.20
2022-08-26T20:10:13.092Z,7.13
2022-08-26T20:12:41.874Z,7.05
2022-08-26T20:15:11.146Z,7.95
2022-08-26T20:17:38.974Z,7.72
2022-08-26T20:20:33.519Z,8.30
2022-08-26T20:23:03.748Z,8.65
2022-08-26T20:25:33.739Z,7.95
2022-08-26T20:28:01.390Z,8.45
2022-08-26T20:30:28.552Z,7.40
2022-08-26T20:32:56.582Z,8.52
2022-08-26T20:35:24.097Z,8.57
2022-08-26T20:37:51.496Z,8.90
2022-08-26T20:40:18.660Z,8.93
2022-08-26T20:42:46.007Z,7.75
2022-08-26T20:45:13.420Z,7.95
2022-08-26T20:47:40.446Z,7.28
2022-08-26T20:50:08.894Z,9.02
2022-08-26T20:52:35.958Z,8.02
2022-08-26T20:55:03.398Z,7.57
2022-08-26T20:57:31.320Z,8.55
2022-08-26T20:59:58.950Z,8.65
2022-08-26T21:02:25.975Z,8.05
2022-08-26T21:04:54.144Z,8.35
2022-08-26T21:07:21.148Z,8.75
2022-08-26T21:09:49.578Z,8.30
2022-08-26T21:12:19.085Z,7.78
2022-08-26T21:14:49.515Z,7.72
2022-08-26T21:17:17.195Z,7.95
2022-08-26T21:19:44.785Z,7.72
2022-08-26T21:22:12.470Z,8.90
2022-08-26T21:24:42.101Z,7.68
2022-08-26T21:27:09.700Z,7.32
2022-08-26T21:29:37.063Z,6.78
2022-08-26T21:32:05.528Z,7.38
2022-08-26T21:34:33.193Z,8.15
2022-08-26T21:37:01.309Z,8.65
2022-08-26T21:39:32.893Z,8.15
2022-08-26T21:42:00.512Z,7.47
2022-08-26T21:44:27.781Z,9.48
2022-08-26T21:46:55.830Z,7.50
2022-08-26T21:49:23.306Z,7.55
2022-08-26T21:51:52.322Z,7.88
2022-08-26T21:54:22.265Z,7.95
2022-08-26T21:56:51.300Z,8.93
2022-08-26T21:59:19.144Z,8.40
2022-08-26T22:01:47.129Z,8.60
2022-08-26T22:04:14.493Z,9.32
2022-08-26T22:06:48.114Z,8.88
2022-08-26T22:09:18.268Z,8.43
2022-08-26T22:11:46.433Z,9.40
2022-08-26T22:14:14.759Z,9.00
2022-08-26T22:16:45.703Z,13.23
2022-08-26T22:19:21.101Z,10.75
2022-08-26T22:21:54.766Z,9.60
2022-08-26T22:24:24.360Z,8.77
2022-08-26T22:26:52.365Z,8.98
2022-08-26T22:29:22.141Z,9.95
2022-08-26T22:31:50.255Z,8.32
2022-08-26T22:34:20.586Z,9.02
2022-08-26T22:36:49.902Z,8.93
2022-08-26T22:39:20.797Z,8.70
2022-08-26T22:41:48.978Z,8.60
2022-08-26T22:44:17.965Z,7.95
2022-08-26T22:46:45.903Z,8.23
2022-08-26T22:49:17.566Z,8.27
2022-08-26T22:51:46.528Z,8.45
2022-08-26T22:54:15.367Z,9.02
2022-08-26T22:56:44.866Z,9.88
2022-08-26T22:59:12.724Z,10.25
2022-08-26T23:01:42.782Z,8.80
2022-08-26T23:04:11.103Z,10.43
2022-08-26T23:06:41.557Z,10.45
2022-08-26T23:09:13.334Z,11.52
2022-08-26T23:11:43.203Z,9.85
2022-08-26T23:14:11.433Z,9.75
2022-08-26T23:16:44.121Z,10.15
2022-08-26T23:19:14.897Z,9.25
2022-08-26T23:21:42.422Z,9.27
2022-08-26T23:24:10.425Z,11.15
2022-08-26T23:26:39.446Z,11.63
2022-08-26T23:29:08.374Z,11.32
2022-08-26T23:31:37.487Z,11.18
2022-08-26T23:34:23.933Z,11.60
2022-08-26T23:36:52.412Z,9.93
2022-08-26T23:39:20.952Z,9.70
2022-08-26T23:41:48.631Z,10.25
2022-08-26T23:44:15.613Z,10.45
2022-08-26T23:46:43.527Z,10.63
2022-08-26T23:49:10.563Z,9.90
2022-08-26T23:51:58.169Z,15.70
2022-08-26T23:54:27.039Z,11.90
2022-08-26T23:56:54.035Z,10.00
2022-08-26T23:59:22.237Z,10.40
